createdAt,value
2018-04-28T00:01:36.668Z,11.80
2018-04-28T00:04:04.151Z,11.85
2018-04-28T00:06:31.612Z,11.93
2018-04-28T00:08:59.104Z,12.10
2018-04-28T00:11:26.562Z,12.17
2018-04-28T00:13:54.047Z,12.34
2018-04-28T00:16:23.293Z,12.61
2018-04-28T00:19:02.578Z,12.91
2018-04-28T00:24:49.171Z,12.83
2018-04-28T00:27:20.128Z,12.74
2018-04-28T00:29:47.608Z,12.63
2018-04-28T00:32:15.070Z,12.70
2018-04-28T00:34:50.297Z,12.61
2018-04-28T00:37:18.497Z,12.46
2018-04-28T00:42:48.770Z,12.27
2018-04-28T00:45:26.981Z,12.35
2018-04-28T00:47:54.982Z,12.18
2018-04-28T00:50:25.145Z,12.09
2018-04-28T00:52:53.570Z,11.89
2018-04-28T00:55:36.647Z,11.70
2018-04-28T00:58:05.943Z,11.58
2018-04-28T01:00:34.776Z,11.38
2018-04-28T01:03:04.033Z,11.21
2018-04-28T01:05:32.361Z,11.22
2018-04-28T01:07:59.823Z,11.19
2018-04-28T01:10:29.262Z,11.10
2018-04-28T01:12:57.647Z,11.16
2018-04-28T01:15:30.430Z,11.61
2018-04-28T01:18:05.374Z,11.89
2018-04-28T01:20:44.621Z,12.11
2018-04-28T01:23:12.081Z,12.21
2018-04-28T01:25:40.328Z,12.38
2018-04-28T01:28:11.421Z,12.49
2018-04-28T01:30:38.878Z,12.54
2018-04-28T01:33:11.930Z,12.58
2018-04-28T01:38:37.913Z,12.62
2018-04-28T01:41:17.342Z,12.73
2018-04-28T01:43:54.311Z,12.71
2018-04-28T01:46:21.812Z,12.65
2018-04-28T01:48:51.812Z,12.56
2018-04-28T01:54:32.658Z,12.41
2018-04-28T02:00:03.824Z,12.11
2018-04-28T02:02:42.053Z,12.04
2018-04-28T02:05:13.922Z,12.01
2018-04-28T02:07:42.199Z,11.98
2018-04-28T02:10:09.655Z,11.62
2018-04-28T02:12:46.434Z,11.51
2018-04-28T02:15:14.703Z,11.42
2018-04-28T02:20:39.585Z,11.21
2018-04-28T02:23:10.970Z,11.04
2018-04-28T02:25:40.225Z,11.12
2018-04-28T02:28:13.678Z,11.09
2018-04-28T02:30:58.731Z,11.12
2018-04-28T02:33:26.226Z,11.22
2018-04-28T02:36:09.353Z,11.36
2018-04-28T02:38:38.341Z,11.50
2018-04-28T02:41:12.690Z,11.60
2018-04-28T02:43:53.905Z,11.65
2018-04-28T02:46:36.241Z,11.72
2018-04-28T02:52:13.254Z,11.81
2018-04-28T02:57:51.895Z,11.67
2018-04-28T03:03:21.042Z,11.77
2018-04-28T03:05:48.527Z,11.74
2018-04-28T03:08:18.782Z,11.74
2018-04-28T03:10:50.697Z,11.76
2018-04-28T03:16:22.093Z,11.83
2018-04-28T03:18:49.557Z,11.61
2018-04-28T03:21:18.779Z,11.61
2018-04-28T03:23:52.877Z,11.61
2018-04-28T03:26:22.781Z,11.52
2018-04-28T03:28:50.274Z,11.69
2018-04-28T03:31:23.630Z,11.67
2018-04-28T03:37:14.426Z,11.76
2018-04-28T03:40:01.184Z,11.89
2018-04-28T03:42:34.486Z,11.94
2018-04-28T03:45:04.842Z,11.96
2018-04-28T03:47:36.119Z,11.94
2018-04-28T03:50:03.578Z,11.98
2018-04-28T03:52:47.722Z,11.91
2018-04-28T03:55:15.193Z,11.82
2018-04-28T03:57:54.400Z,11.94
2018-04-28T04:03:23.331Z,12.01
2018-04-28T04:08:54.578Z,12.00
2018-04-28T04:14:38.461Z,12.04
2018-04-28T04:17:13.303Z,12.03
2018-04-28T04:19:52.604Z,12.06
2018-04-28T04:22:24.625Z,11.99
2018-04-28T04:24:52.745Z,12.04
2018-04-28T04:27:41.802Z,11.97
2018-04-28T04:30:21.138Z,12.04
2018-04-28T04:32:52.757Z,12.15
2018-04-28T04:35:25.958Z,12.16
2018-04-28T04:37:54.090Z,12.17
2018-04-28T04:49:57.110Z,12.18
2018-04-28T04:52:39.493Z,12.25
2018-04-28T04:58:29.306Z,12.27
2018-04-28T05:04:17.006Z,12.47
2018-04-28T05:07:06.107Z,12.55
2018-04-28T05:12:48.122Z,12.69
2018-04-28T05:18:27.512Z,12.65
2018-04-28T05:24:23.971Z,12.76
2018-04-28T05:26:54.074Z,12.83
2018-04-28T05:29:32.994Z,12.65
2018-04-28T05:35:10.526Z,12.88
2018-04-28T05:37:53.553Z,12.91
2018-04-28T05:40:21.821Z,12.75
2018-04-28T05:43:01.022Z,12.82
2018-04-28T05:45:40.149Z,12.86
2018-04-28T05:51:13.471Z,12.73
2018-04-28T05:57:14.984Z,12.88
2018-04-28T05:59:48.393Z,13.12
2018-04-28T06:05:38.217Z,13.30
2018-04-28T06:11:41.049Z,13.57
2018-04-28T06:14:29.233Z,13.63
2018-04-28T06:17:04.132Z,13.57
2018-04-28T06:22:40.381Z,14.14
2018-04-28T06:25:08.674Z,14.28
2018-04-28T06:27:36.154Z,14.34
2018-04-28T06:30:03.605Z,14.37
2018-04-28T06:32:31.091Z,14.23
2018-04-28T06:34:58.565Z,14.27
2018-04-28T06:37:26.017Z,14.33
2018-04-28T06:39:53.490Z,14.14
2018-04-28T06:42:21.219Z,14.02
2018-04-28T06:44:48.701Z,14.01
2018-04-28T06:47:16.164Z,14.24
2018-04-28T06:49:43.648Z,13.80
2018-04-28T06:52:11.107Z,14.00
2018-04-28T06:54:38.590Z,13.62
2018-04-28T06:57:06.054Z,13.72
2018-04-28T06:59:33.532Z,13.96
2018-04-28T07:02:01.017Z,13.80
2018-04-28T07:04:28.499Z,14.26
2018-04-28T07:06:55.958Z,14.10
2018-04-28T07:09:23.437Z,14.39
2018-04-28T07:11:50.973Z,14.44
2018-04-28T07:14:19.322Z,14.43
2018-04-28T07:16:46.781Z,14.62
2018-04-28T07:19:14.257Z,14.83
2018-04-28T07:21:41.717Z,14.84
2018-04-28T07:24:09.168Z,15.06
2018-04-28T07:26:36.643Z,15.32
2018-04-28T07:29:04.123Z,15.34
2018-04-28T07:31:31.605Z,15.58
2018-04-28T07:33:59.064Z,15.21
2018-04-28T07:36:26.533Z,15.22
2018-04-28T07:38:53.989Z,15.37
2018-04-28T07:41:21.458Z,14.84
2018-04-28T07:43:48.913Z,15.40
2018-04-28T07:46:16.386Z,15.67
2018-04-28T07:48:43.847Z,15.58
2018-04-28T07:51:11.325Z,15.49
2018-04-28T07:53:38.790Z,15.92
2018-04-28T07:56:06.273Z,16.19
2018-04-28T07:58:33.729Z,16.30
2018-04-28T08:01:01.218Z,16.27
2018-04-28T08:03:28.673Z,16.48
2018-04-28T08:05:56.157Z,16.38
2018-04-28T08:08:23.626Z,16.66
2018-04-28T08:10:51.103Z,16.76
2018-04-28T08:13:18.567Z,16.83
2018-04-28T08:15:46.070Z,16.80
2018-04-28T08:18:13.526Z,16.85
2018-04-28T08:20:41.033Z,16.60
2018-04-28T08:23:08.533Z,16.74
2018-04-28T08:25:36.031Z,16.88
2018-04-28T08:28:03.481Z,17.44
2018-04-28T08:30:30.962Z,17.33
2018-04-28T08:32:58.450Z,17.25
2018-04-28T08:35:25.916Z,17.26
2018-04-28T08:37:53.365Z,17.49
2018-04-28T08:40:20.859Z,17.32
2018-04-28T08:42:48.320Z,17.22
2018-04-28T08:45:15.794Z,16.77
2018-04-28T08:47:43.273Z,17.00
2018-04-28T08:50:10.799Z,17.11
2018-04-28T08:52:38.282Z,17.13
2018-04-28T08:55:05.742Z,16.85
2018-04-28T08:57:33.220Z,17.37
2018-04-28T09:00:12.469Z,17.52
2018-04-28T09:02:39.957Z,17.40
2018-04-28T09:05:07.409Z,17.17
2018-04-28T09:07:38.746Z,17.06
2018-04-28T09:10:06.202Z,16.78
2018-04-28T09:12:33.670Z,16.58
2018-04-28T09:15:01.122Z,17.03
2018-04-28T09:17:28.598Z,16.80
2018-04-28T09:19:56.062Z,17.28
2018-04-28T09:22:23.538Z,17.35
2018-04-28T09:24:51.001Z,17.26
2018-04-28T09:27:18.482Z,17.17
2018-04-28T09:29:45.942Z,17.49
2018-04-28T09:32:13.416Z,17.65
2018-04-28T09:34:40.869Z,17.65
2018-04-28T09:37:08.349Z,18.05
2018-04-28T09:39:35.818Z,17.79
2018-04-28T09:42:03.394Z,17.86
2018-04-28T09:44:30.854Z,17.65
2018-04-28T09:46:58.325Z,17.45
2018-04-28T09:49:25.786Z,17.69
2018-04-28T09:51:53.265Z,17.62
2018-04-28T09:54:20.727Z,18.19
2018-04-28T09:56:48.190Z,18.48
2018-04-28T09:59:15.678Z,18.05
2018-04-28T10:01:43.125Z,18.06
2018-04-28T10:04:16.296Z,18.27
2018-04-28T10:06:43.745Z,18.30
2018-04-28T10:09:11.214Z,18.16
2018-04-28T10:11:38.665Z,17.97
2018-04-28T10:14:06.175Z,17.97
2018-04-28T10:16:33.638Z,18.10
2018-04-28T10:19:01.115Z,17.71
2018-04-28T10:21:28.579Z,17.74
2018-04-28T10:23:56.059Z,18.38
2018-04-28T10:26:23.519Z,18.50
2018-04-28T10:28:50.994Z,18.36
2018-04-28T10:31:20.218Z,18.03
2018-04-28T10:33:47.706Z,17.81
2018-04-28T10:36:15.167Z,17.99
2018-04-28T10:38:43.482Z,17.95
2018-04-28T10:41:10.941Z,17.64
2018-04-28T10:43:38.417Z,17.69
2018-04-28T10:46:05.874Z,17.18
2018-04-28T10:48:33.368Z,17.54
2018-04-28T10:51:00.836Z,17.56
2018-04-28T10:53:28.301Z,17.64
2018-04-28T10:55:55.758Z,17.72
2018-04-28T10:58:23.233Z,17.37
2018-04-28T11:00:50.693Z,17.56
2018-04-28T11:03:18.173Z,17.34
2018-04-28T11:05:45.633Z,17.43
2018-04-28T11:08:13.112Z,17.59
2018-04-28T11:10:40.576Z,17.64
2018-04-28T11:13:08.057Z,17.46
2018-04-28T11:18:12.677Z,17.68
2018-04-28T11:20:40.133Z,17.77
2018-04-28T11:23:07.617Z,17.57
2018-04-28T11:25:35.105Z,17.66
2018-04-28T11:28:02.558Z,17.65
2018-04-28T11:30:30.031Z,18.52
2018-04-28T11:32:57.539Z,18.81
2018-04-28T11:35:24.977Z,19.19
2018-04-28T11:37:52.429Z,18.99
2018-04-28T11:40:31.202Z,18.96
2018-04-28T11:42:58.666Z,19.08
2018-04-28T11:45:26.159Z,19.14
2018-04-28T11:47:53.659Z,19.39
2018-04-28T11:50:21.141Z,19.17
2018-04-28T11:52:48.593Z,19.01
2018-04-28T11:55:16.071Z,18.57
2018-04-28T11:57:43.579Z,19.23
2018-04-28T12:00:11.174Z,19.63
2018-04-28T12:02:39.387Z,20.16
2018-04-28T12:05:06.828Z,20.47
2018-04-28T12:07:34.288Z,20.65
2018-04-28T12:10:01.778Z,19.72
2018-04-28T12:12:29.277Z,19.15
2018-04-28T12:14:56.785Z,19.88
2018-04-28T12:17:24.346Z,19.98
2018-04-28T12:19:51.890Z,19.80
2018-04-28T12:22:19.370Z,19.65
2018-04-28T12:24:46.919Z,19.07
2018-04-28T12:27:14.375Z,19.55
2018-04-28T12:29:41.874Z,19.38
2018-04-28T12:32:09.370Z,20.79
2018-04-28T12:34:36.853Z,21.38
2018-04-28T12:37:04.309Z,20.87
2018-04-28T12:39:31.893Z,20.74
2018-04-28T12:41:59.519Z,20.51
2018-04-28T12:44:27.020Z,19.53
2018-04-28T12:46:54.521Z,19.81
2018-04-28T12:49:23.087Z,19.40
2018-04-28T12:51:50.602Z,19.70
2018-04-28T12:54:18.087Z,19.52
2018-04-28T12:56:45.598Z,19.43
2018-04-28T12:59:13.058Z,19.44
2018-04-28T13:01:40.540Z,19.49
2018-04-28T13:04:08.010Z,19.58
2018-04-28T13:06:35.490Z,19.77
2018-04-28T13:09:02.979Z,19.72
2018-04-28T13:11:30.464Z,20.38
2018-04-28T13:13:57.928Z,19.72
2018-04-28T13:16:25.408Z,20.29
2018-04-28T13:18:52.864Z,20.32
2018-04-28T13:21:20.338Z,20.78
2018-04-28T13:23:47.793Z,21.55
2018-04-28T13:26:15.273Z,21.28
2018-04-28T13:28:42.751Z,20.61
2018-04-28T13:31:10.225Z,20.65
2018-04-28T13:33:37.843Z,19.66
2018-04-28T13:36:05.329Z,19.92
2018-04-28T13:38:32.804Z,19.87
2018-04-28T13:41:00.309Z,20.37
2018-04-28T13:43:27.778Z,21.74
2018-04-28T13:45:55.290Z,20.98
2018-04-28T13:48:22.758Z,20.67
2018-04-28T13:50:50.231Z,19.90
2018-04-28T13:53:17.721Z,19.80
2018-04-28T13:55:45.194Z,20.52
2018-04-28T13:58:12.653Z,20.68
2018-04-28T14:00:40.176Z,20.90
2018-04-28T14:03:07.665Z,21.96
2018-04-28T14:05:35.133Z,21.54
2018-04-28T14:08:02.590Z,21.59
2018-04-28T14:10:30.061Z,21.27
2018-04-28T14:12:57.577Z,20.22
2018-04-28T14:15:25.045Z,20.47
2018-04-28T14:17:52.955Z,20.40
2018-04-28T14:20:20.416Z,21.09
2018-04-28T14:22:47.896Z,21.07
2018-04-28T14:25:15.355Z,20.60
2018-04-28T14:27:42.829Z,21.23
2018-04-28T14:30:10.285Z,20.88
2018-04-28T14:32:37.861Z,20.81
2018-04-28T14:35:05.345Z,21.78
2018-04-28T14:37:32.822Z,21.74
2018-04-28T14:40:00.326Z,22.86
2018-04-28T14:42:44.761Z,21.71
2018-04-28T14:45:12.229Z,22.23
2018-04-28T14:47:39.706Z,20.69
2018-04-28T14:50:07.197Z,19.41
2018-04-28T14:52:34.673Z,18.95
2018-04-28T14:55:02.121Z,19.23
2018-04-28T14:57:29.682Z,19.46
2018-04-28T14:59:57.277Z,19.76
2018-04-28T15:02:24.759Z,19.97
2018-04-28T15:04:52.211Z,19.79
2018-04-28T15:07:19.683Z,20.06
2018-04-28T15:09:47.231Z,19.87
2018-04-28T15:12:14.745Z,19.68
2018-04-28T15:14:42.197Z,19.25
2018-04-28T15:17:09.787Z,19.22
2018-04-28T15:19:37.309Z,19.89
2018-04-28T15:22:04.798Z,19.31
2018-04-28T15:24:32.253Z,19.15
2018-04-28T15:26:59.751Z,19.41
2018-04-28T15:29:27.213Z,19.44
2018-04-28T15:31:54.681Z,19.12
2018-04-28T15:34:22.137Z,19.14
2018-04-28T15:36:49.648Z,18.76
2018-04-28T15:39:17.106Z,18.49
2018-04-28T15:41:44.621Z,18.56
2018-04-28T15:44:12.092Z,18.38
2018-04-28T15:46:39.603Z,18.28
2018-04-28T15:49:07.047Z,18.37
2018-04-28T15:51:34.510Z,18.29
2018-04-28T15:54:02.012Z,18.30
2018-04-28T15:56:29.515Z,18.37
2018-04-28T15:58:56.996Z,18.17
2018-04-28T16:01:24.449Z,18.25
2018-04-28T16:03:51.941Z,18.23
2018-04-28T16:06:19.403Z,18.31
2018-04-28T16:08:46.869Z,18.22
2018-04-28T16:11:14.325Z,18.19
2018-04-28T16:13:41.809Z,18.28
2018-04-28T16:16:09.268Z,18.14
2018-04-28T16:18:36.752Z,18.15
2018-04-28T16:21:04.220Z,18.07
2018-04-28T16:23:31.700Z,18.05
2018-04-28T16:25:59.236Z,17.89
2018-04-28T16:28:26.691Z,17.84
2018-04-28T16:30:54.141Z,17.87
2018-04-28T16:33:21.613Z,17.93
2018-04-28T16:35:49.065Z,17.81
2018-04-28T16:38:16.532Z,17.76
2018-04-28T16:40:44.005Z,17.69
2018-04-28T16:43:11.513Z,17.73
2018-04-28T16:45:39.889Z,17.69
2018-04-28T16:48:07.366Z,17.43
2018-04-28T16:50:34.861Z,17.56
2018-04-28T16:53:02.330Z,17.53
2018-04-28T16:55:29.789Z,17.52
2018-04-28T16:57:57.313Z,17.19
2018-04-28T17:00:24.769Z,17.10
2018-04-28T17:02:52.237Z,16.95
2018-04-28T17:05:19.698Z,17.02
2018-04-28T17:07:47.173Z,16.78
2018-04-28T17:10:14.649Z,16.66
2018-04-28T17:12:42.122Z,16.78
2018-04-28T17:15:09.599Z,16.66
2018-04-28T17:17:48.933Z,16.63
2018-04-28T17:20:16.436Z,16.63
2018-04-28T17:22:43.909Z,16.67
2018-04-28T17:25:11.386Z,16.68
2018-04-28T17:27:38.835Z,16.71
2018-04-28T17:30:06.330Z,16.68
2018-04-28T17:32:33.781Z,16.65
2018-04-28T17:35:01.274Z,16.65
2018-04-28T17:37:28.733Z,16.63
2018-04-28T17:39:56.223Z,16.66
2018-04-28T17:42:27.886Z,16.49
2018-04-28T17:44:55.398Z,16.54
2018-04-28T17:47:22.850Z,16.46
2018-04-28T17:49:50.336Z,16.40
2018-04-28T17:52:17.792Z,16.30
2018-04-28T17:54:45.278Z,16.24
2018-04-28T17:57:12.743Z,16.19
2018-04-28T17:59:42.181Z,16.12
2018-04-28T18:02:10.549Z,16.15
2018-04-28T18:04:38.033Z,16.13
2018-04-28T18:07:05.505Z,16.04
2018-04-28T18:09:32.993Z,16.01
2018-04-28T18:12:00.456Z,15.94
2018-04-28T18:14:27.967Z,15.89
2018-04-28T18:16:55.730Z,15.83
2018-04-28T18:19:23.211Z,15.70
2018-04-28T18:21:50.713Z,15.61
2018-04-28T18:24:18.198Z,15.65
2018-04-28T18:26:45.661Z,15.59
2018-04-28T18:29:13.151Z,15.58
2018-04-28T18:31:40.606Z,15.50
2018-04-28T18:34:08.109Z,15.38
2018-04-28T18:36:35.565Z,15.35
2018-04-28T18:39:03.021Z,15.36
2018-04-28T18:41:31.502Z,15.28
2018-04-28T18:43:58.974Z,15.25
2018-04-28T18:46:26.569Z,15.25
2018-04-28T18:48:54.290Z,15.25
2018-04-28T18:51:21.779Z,15.31
2018-04-28T18:53:49.241Z,15.20
2018-04-28T18:56:16.757Z,15.21
2018-04-28T18:58:44.209Z,15.16
2018-04-28T19:01:11.745Z,15.12
2018-04-28T19:03:39.243Z,15.12
2018-04-28T19:06:06.721Z,15.14
2018-04-28T19:08:40.009Z,15.17
2018-04-28T19:11:07.496Z,14.99
2018-04-28T19:13:34.946Z,15.19
2018-04-28T19:16:02.431Z,15.22
2018-04-28T19:18:29.894Z,15.27
2018-04-28T19:20:57.423Z,15.00
2018-04-28T19:23:24.870Z,14.98
2018-04-28T19:25:52.341Z,15.09
2018-04-28T19:28:19.792Z,15.15
2018-04-28T19:30:57.430Z,15.09
2018-04-28T19:33:24.896Z,15.11
2018-04-28T19:35:52.414Z,15.04
2018-04-28T19:38:19.871Z,15.07
2018-04-28T19:40:47.357Z,14.96
2018-04-28T19:43:14.810Z,15.00
2018-04-28T19:45:42.314Z,14.94
2018-04-28T19:48:09.773Z,14.95
2018-04-28T19:50:37.277Z,14.88
2018-04-28T19:53:04.725Z,14.83
2018-04-28T19:55:32.211Z,14.72
2018-04-28T19:57:59.672Z,14.72
2018-04-28T20:00:27.177Z,14.70
2018-04-28T20:02:54.682Z,14.69
2018-04-28T20:05:22.170Z,14.68
2018-04-28T20:07:49.651Z,14.50
2018-04-28T20:10:17.842Z,14.38
2018-04-28T20:12:45.317Z,14.39
2018-04-28T20:15:12.774Z,14.34
2018-04-28T20:17:40.251Z,14.27
2018-04-28T20:20:07.696Z,14.11
2018-04-28T20:22:46.993Z,14.00
2018-04-28T20:25:22.039Z,13.81
2018-04-28T20:27:49.517Z,13.94
2018-04-28T20:30:16.998Z,13.89
2018-04-28T20:32:44.467Z,13.77
2018-04-28T20:35:11.930Z,13.66
2018-04-28T20:37:39.417Z,13.58
2018-04-28T20:40:06.874Z,13.79
2018-04-28T20:42:34.361Z,13.78
2018-04-28T20:45:01.824Z,13.77
2018-04-28T20:47:29.322Z,13.75
2018-04-28T20:49:56.782Z,13.65
2018-04-28T20:52:24.272Z,13.62
2018-04-28T20:54:51.817Z,13.58
2018-04-28T20:57:20.161Z,13.56
2018-04-28T20:59:47.672Z,13.01
2018-04-28T21:02:15.154Z,13.05
2018-04-28T21:04:42.613Z,13.14
2018-04-28T21:07:10.075Z,13.14
2018-04-28T21:09:37.554Z,13.18
2018-04-28T21:12:05.042Z,13.10
2018-04-28T21:14:32.517Z,12.92
2018-04-28T21:16:59.981Z,12.92
2018-04-28T21:19:28.277Z,12.91
2018-04-28T21:21:55.742Z,12.81
2018-04-28T21:24:23.213Z,12.82
2018-04-28T21:26:50.669Z,12.79
2018-04-28T21:29:18.182Z,12.58
2018-04-28T21:31:45.689Z,12.47
2018-04-28T21:34:13.173Z,12.44
2018-04-28T21:36:40.626Z,12.37
2018-04-28T21:39:08.101Z,12.31
2018-04-28T21:41:35.562Z,12.22
2018-04-28T21:44:03.041Z,12.08
2018-04-28T21:46:30.576Z,12.07
2018-04-28T21:48:57.998Z,12.01
2018-04-28T21:51:25.477Z,11.93
2018-04-28T21:53:52.949Z,11.86
2018-04-28T21:56:20.406Z,11.75
2018-04-28T21:58:47.898Z,11.73
2018-04-28T22:01:15.354Z,11.70
2018-04-28T22:03:42.805Z,11.68
2018-04-28T22:06:10.283Z,11.55
2018-04-28T22:08:37.738Z,11.47
2018-04-28T22:11:05.214Z,11.46
2018-04-28T22:13:32.671Z,11.43
2018-04-28T22:16:00.141Z,11.38
2018-04-28T22:18:27.614Z,11.35
2018-04-28T22:20:55.101Z,11.27
2018-04-28T22:23:22.610Z,11.26
2018-04-28T22:25:50.078Z,11.12
2018-04-28T22:28:17.529Z,11.06
2018-04-28T22:30:45.008Z,11.06
2018-04-28T22:33:12.469Z,11.03
2018-04-28T22:35:39.941Z,10.95
2018-04-28T22:38:07.393Z,10.92
2018-04-28T22:40:34.857Z,10.77
2018-04-28T22:43:02.377Z,10.65
2018-04-28T22:45:29.865Z,10.45
2018-04-28T22:47:57.321Z,10.30
2018-04-28T22:50:24.800Z,10.22
2018-04-28T22:52:52.262Z,10.28
2018-04-28T22:55:19.750Z,10.40
2018-04-28T22:57:47.201Z,10.32
2018-04-28T23:00:14.674Z,10.39
2018-04-28T23:02:42.138Z,10.32
2018-04-28T23:05:09.609Z,10.30
2018-04-28T23:07:37.071Z,10.22
2018-04-28T23:10:04.547Z,10.24
2018-04-28T23:12:32.014Z,10.21
2018-04-28T23:14:59.481Z,10.11
2018-04-28T23:17:26.933Z,10.04
2018-04-28T23:19:54.403Z,9.92
2018-04-28T23:22:21.851Z,9.80
2018-04-28T23:24:49.306Z,9.73
2018-04-28T23:27:16.946Z,9.71
2018-04-28T23:29:44.397Z,9.58
2018-04-28T23:32:11.870Z,9.53
2018-04-28T23:34:39.345Z,9.57
2018-04-28T23:37:06.820Z,9.63
2018-04-28T23:39:34.278Z,9.60
2018-04-28T23:42:01.756Z,9.72
2018-04-28T23:44:29.201Z,9.77
2018-04-28T23:46:56.674Z,9.73
2018-04-28T23:49:24.126Z,9.72
2018-04-28T23:51:51.603Z,9.75
2018-04-28T23:54:19.066Z,9.74
2018-04-28T23:56:46.571Z,9.80
2018-04-28T23:59:14.021Z,9.76
